Isabella — 9HSL7 — position and weather

sailwx.info

Track history (hours):
 
Tides and Currents Weather Stations Pressure Air Temp Water Temp Dewpoint Dewpoint Depression Visibility Wind Speed Wind Dir Waves Ship Positions

Isabella

Last reported at 2015-Mar-26 21:34 UTC. Time now 2015-Mar-27 02:01 UTC.
Position N 41°36' E 029°18'.

Length 244 m; draft 13.8 m.

Type: Tanker. MMSI: 215545000.

Date/timePositionNaut miles runAvg speedWind from/ knotsBaromVisibWave heightAir tempDewpointWater temp
2015-Mar-26 21:34N 41°36' E 029°18'5 2.4
2015-Mar-26 19:31N 41°32' E 029°22'1010.4
2015-Mar-26 18:33N 41°31' E 029°35'23612.2
2015-Mar-25 23:12N 43°18' E 034°21'14212.1
2015-Mar-25 11:32N 44°23' E 037°15'  
2015-Mar-22 19:17N 43°45' E 035°34'3810.2
2015-Mar-22 15:32N 43°31' E 034°45'2010.2
2015-Mar-22 13:33N 43°23' E 034°20'23311.7
2015-Mar-21 17:33N 41°39' E 029°36'1211.5
2015-Mar-21 16:33N 41°29' E 029°28'1211.7
2015-Mar-21 15:33N 41°21' E 029°16'1611.2
2015-Mar-21 14:09N 41°09' E 029°04'8 8.6
2015-Mar-21 13:14N 41°01' E 028°60'5 7.1
2015-Mar-21 12:33N 40°57' E 028°59'8 8.1
2015-Mar-21 11:33N 40°49' E 028°54'3 2.7
2015-Mar-21 10:33N 40°47' E 028°55'1 1.0
2015-Mar-21 09:33N 40°47' E 028°54'1 1.0
2015-Mar-21 08:31N 40°48' E 028°53'1 1.0
2015-Mar-21 07:33N 40°48' E 028°52'4 3.7
2015-Mar-21 06:33N 40°44' E 028°51'5 5.0
2015-Mar-21 05:32N 40°39' E 028°52'1 1.1
2015-Mar-21 04:33N 40°39' E 028°51'1 1.2
2015-Mar-21 03:33N 40°40' E 028°49'1 1.0
2015-Mar-21 02:32N 40°40' E 028°48'1 1.0
2015-Mar-21 01:33N 40°40' E 028°46'1 0.8
2015-Mar-21 00:31N 40°40' E 028°45'1 0.9
2015-Mar-20 23:33N 40°41' E 028°44'1 1.1
2015-Mar-20 22:33N 40°41' E 028°44'1 1.3
2015-Mar-20 21:30N 40°43' E 028°43'1 1.4
2015-Mar-20 20:33N 40°44' E 028°42'1 1.4
2015-Mar-20 19:33N 40°45' E 028°41'2 1.7
2015-Mar-20 18:33N 40°46' E 028°40'8 8.2
2015-Mar-20 17:33N 40°49' E 028°29'  
Track history (hours):
 
Tides and Currents Weather Stations Pressure Air Temp Water Temp Dewpoint Dewpoint Depression Visibility Wind Speed Wind Dir Waves Ship Positions

Isabella

Last reported at 2015-Mar-26 21:34 UTC. Time now 2015-Mar-27 02:01 UTC.
Position N 41°36' E 029°18'.

Length 244 m; draft 13.8 m.

Type: Tanker. MMSI: 215545000.

Date/timePositionNaut miles runAvg speedWind from/ knotsBaromVisibWave heightAir tempDewpointWater temp
2015-Mar-26 21:34N 41°36' E 029°18'5 2.4
2015-Mar-26 19:31N 41°32' E 029°22'1010.4
2015-Mar-26 18:33N 41°31' E 029°35'23612.2
2015-Mar-25 23:12N 43°18' E 034°21'14212.1
2015-Mar-25 11:32N 44°23' E 037°15'  
2015-Mar-22 19:17N 43°45' E 035°34'3810.2
2015-Mar-22 15:32N 43°31' E 034°45'2010.2
2015-Mar-22 13:33N 43°23' E 034°20'23311.7
2015-Mar-21 17:33N 41°39' E 029°36'1211.5
2015-Mar-21 16:33N 41°29' E 029°28'1211.7
2015-Mar-21 15:33N 41°21' E 029°16'1611.2
2015-Mar-21 14:09N 41°09' E 029°04'8 8.6
2015-Mar-21 13:14N 41°01' E 028°60'5 7.1
2015-Mar-21 12:33N 40°57' E 028°59'8 8.1
2015-Mar-21 11:33N 40°49' E 028°54'3 2.7
2015-Mar-21 10:33N 40°47' E 028°55'1 1.0
2015-Mar-21 09:33N 40°47' E 028°54'1 1.0
2015-Mar-21 08:31N 40°48' E 028°53'1 1.0
2015-Mar-21 07:33N 40°48' E 028°52'4 3.7
2015-Mar-21 06:33N 40°44' E 028°51'5 5.0
2015-Mar-21 05:32N 40°39' E 028°52'1 1.1
2015-Mar-21 04:33N 40°39' E 028°51'1 1.2
2015-Mar-21 03:33N 40°40' E 028°49'1 1.0
2015-Mar-21 02:32N 40°40' E 028°48'1 1.0
2015-Mar-21 01:33N 40°40' E 028°46'1 0.8
2015-Mar-21 00:31N 40°40' E 028°45'1 0.9
2015-Mar-20 23:33N 40°41' E 028°44'1 1.1
2015-Mar-20 22:33N 40°41' E 028°44'1 1.3
2015-Mar-20 21:30N 40°43' E 028°43'1 1.4
2015-Mar-20 20:33N 40°44' E 028°42'1 1.4
2015-Mar-20 19:33N 40°45' E 028°41'2 1.7
2015-Mar-20 18:33N 40°46' E 028°40'8 8.2
2015-Mar-20 17:33N 40°49' E 028°29'  

Dump ship's entire track history